Terminal Aerodrome Forecast
Issued by NWS Newport/Morehead City, NC

Home | Current Version | Previous Version | Text Only | Print | Product List | Glossary Off
Versions: 1 2 3 4 5 6 7 8 9 10 11 12 13

000
FTUS42 KMHX 250522
TAFEWN
TAF
KEWN 250522Z 2506/2606 VRB03KT P6SM SCT100 OVC250
     FM251200 13004KT P6SM BKN100
     FM252100 22006KT 5SM -RA BR SCT007 OVC020
     FM260000 19005KT 3SM -RA BR BKN007 OVC015
     FM260300 25006KT P6SM VCSH OVC005=

USA.gov is the U.S. government's official web portal to all federal, state and local government web resources and services.